sensor_id;sensor_type;location;lat;lon;timestamp;P1;durP1;ratioP1;P2;durP2;ratioP2
84500;SDS011;74725;44.210;17.906;2023-12-29T01:58:04;68.60;;;34.30;;
84500;SDS011;74725;44.210;17.906;2023-12-29T02:00:29;79.47;;;37.70;;
84500;SDS011;74725;44.210;17.906;2023-12-29T02:02:57;79.32;;;37.15;;
84500;SDS011;74725;44.210;17.906;2023-12-29T02:05:23;76.53;;;36.92;;
84500;SDS011;74725;44.210;17.906;2023-12-29T06:11:18;61.05;;;29.23;;
84500;SDS011;74725;44.210;17.906;2023-12-29T06:13:43;65.85;;;31.27;;
84500;SDS011;74725;44.210;17.906;2023-12-29T06:16:09;64.53;;;31.13;;
84500;SDS011;74725;44.210;17.906;2023-12-29T06:18:35;71.45;;;33.42;;
84500;SDS011;74725;44.210;17.906;2023-12-29T06:21:01;78.55;;;35.08;;
84500;SDS011;74725;44.210;17.906;2023-12-29T06:23:28;67.78;;;32.10;;
84500;SDS011;74725;44.210;17.906;2023-12-29T06:25:53;64.95;;;31.85;;
84500;SDS011;74725;44.210;17.906;2023-12-29T06:28:19;73.15;;;34.92;;
84500;SDS011;74725;44.210;17.906;2023-12-29T06:30:45;99.70;;;39.40;;
84500;SDS011;74725;44.210;17.906;2023-12-29T06:33:11;104.53;;;45.20;;
84500;SDS011;74725;44.210;17.906;2023-12-29T06:35:36;119.30;;;52.13;;
84500;SDS011;74725;44.210;17.906;2023-12-29T06:38:04;109.78;;;47.40;;
84500;SDS011;74725;44.210;17.906;2023-12-29T06:40:29;95.18;;;41.95;;
84500;SDS011;74725;44.210;17.906;2023-12-29T06:42:55;99.72;;;41.78;;
84500;SDS011;74725;44.210;17.906;2023-12-29T06:45:21;94.85;;;41.33;;
84500;SDS011;74725;44.210;17.906;2023-12-29T06:47:47;101.00;;;43.67;;
84500;SDS011;74725;44.210;17.906;2023-12-29T06:50:12;97.28;;;43.25;;
84500;SDS011;74725;44.210;17.906;2023-12-29T06:52:38;101.47;;;41.88;;
84500;SDS011;74725;44.210;17.906;2023-12-29T06:55:05;89.57;;;41.65;;
84500;SDS011;74725;44.210;17.906;2023-12-29T06:57:30;87.82;;;37.55;;
84500;SDS011;74725;44.210;17.906;2023-12-29T06:59:56;89.07;;;40.70;;
84500;SDS011;74725;44.210;17.906;2023-12-29T07:02:22;90.00;;;40.75;;
84500;SDS011;74725;44.210;17.906;2023-12-29T07:04:47;81.75;;;38.85;;
84500;SDS011;74725;44.210;17.906;2023-12-29T07:07:13;83.05;;;39.10;;
84500;SDS011;74725;44.210;17.906;2023-12-29T07:09:39;82.50;;;39.13;;
84500;SDS011;74725;44.210;17.906;2023-12-29T07:12:07;95.35;;;41.42;;
84500;SDS011;74725;44.210;17.906;2023-12-29T07:14:33;94.80;;;40.28;;
84500;SDS011;74725;44.210;17.906;2023-12-29T07:17:00;86.03;;;40.15;;
84500;SDS011;74725;44.210;17.906;2023-12-29T07:19:26;80.25;;;37.17;;
84500;SDS011;74725;44.210;17.906;2023-12-29T07:21:59;87.43;;;39.40;;
84500;SDS011;74725;44.210;17.906;2023-12-29T07:24:25;87.93;;;40.95;;
84500;SDS011;74725;44.210;17.906;2023-12-29T07:26:50;86.60;;;39.47;;
84500;SDS011;74725;44.210;17.906;2023-12-29T07:29:16;92.15;;;39.58;;
84500;SDS011;74725;44.210;17.906;2023-12-29T07:31:41;95.45;;;41.20;;
84500;SDS011;74725;44.210;17.906;2023-12-29T07:34:07;107.10;;;45.63;;
84500;SDS011;74725;44.210;17.906;2023-12-29T07:36:33;94.43;;;42.92;;
84500;SDS011;74725;44.210;17.906;2023-12-29T07:38:58;106.13;;;49.33;;
84500;SDS011;74725;44.210;17.906;2023-12-29T07:41:24;87.75;;;40.95;;
84500;SDS011;74725;44.210;17.906;2023-12-29T07:43:49;87.45;;;40.35;;
84500;SDS011;74725;44.210;17.906;2023-12-29T07:46:23;83.57;;;41.65;;
84500;SDS011;74725;44.210;17.906;2023-12-29T07:48:50;93.45;;;43.13;;
84500;SDS011;74725;44.210;17.906;2023-12-29T07:51:15;96.10;;;42.97;;
84500;SDS011;74725;44.210;17.906;2023-12-29T07:53:41;86.47;;;43.33;;
84500;SDS011;74725;44.210;17.906;2023-12-29T07:56:07;92.35;;;44.88;;
84500;SDS011;74725;44.210;17.906;2023-12-29T07:58:32;98.95;;;47.92;;
84500;SDS011;74725;44.210;17.906;2023-12-29T08:00:58;99.43;;;46.30;;
84500;SDS011;74725;44.210;17.906;2023-12-29T08:03:24;95.45;;;43.72;;
84500;SDS011;74725;44.210;17.906;2023-12-29T08:05:49;89.03;;;41.85;;
84500;SDS011;74725;44.210;17.906;2023-12-29T08:08:15;90.00;;;45.00;;
84500;SDS011;74725;44.210;17.906;2023-12-29T08:10:40;90.50;;;43.42;;
84500;SDS011;74725;44.210;17.906;2023-12-29T08:13:06;97.60;;;44.35;;
84500;SDS011;74725;44.210;17.906;2023-12-29T08:15:34;93.07;;;44.17;;
84500;SDS011;74725;44.210;17.906;2023-12-29T08:18:00;82.00;;;41.75;;
84500;SDS011;74725;44.210;17.906;2023-12-29T08:20:46;84.20;;;42.15;;
84500;SDS011;74725;44.210;17.906;2023-12-29T08:23:11;88.25;;;44.30;;
84500;SDS011;74725;44.210;17.906;2023-12-29T08:25:37;93.05;;;43.33;;
84500;SDS011;74725;44.210;17.906;2023-12-29T08:28:02;95.78;;;46.88;;
84500;SDS011;74725;44.210;17.906;2023-12-29T08:30:28;97.15;;;47.13;;
84500;SDS011;74725;44.210;17.906;2023-12-29T08:32:54;102.55;;;45.42;;
84500;SDS011;74725;44.210;17.906;2023-12-29T08:35:19;95.93;;;45.92;;
84500;SDS011;74725;44.210;17.906;2023-12-29T08:37:45;97.70;;;47.78;;
84500;SDS011;74725;44.210;17.906;2023-12-29T08:40:10;102.35;;;47.60;;
84500;SDS011;74725;44.210;17.906;2023-12-29T08:42:36;109.00;;;48.65;;
84500;SDS011;74725;44.210;17.906;2023-12-29T08:45:02;113.32;;;54.67;;
84500;SDS011;74725;44.210;17.906;2023-12-29T08:47:28;113.75;;;51.95;;
84500;SDS011;74725;44.210;17.906;2023-12-29T08:49:54;127.68;;;59.45;;
84500;SDS011;74725;44.210;17.906;2023-12-29T08:52:20;122.63;;;58.63;;
84500;SDS011;74725;44.210;17.906;2023-12-29T08:54:46;121.53;;;58.10;;
84500;SDS011;74725;44.210;17.906;2023-12-29T08:57:12;105.50;;;51.13;;
84500;SDS011;74725;44.210;17.906;2023-12-29T08:59:38;98.55;;;48.30;;
84500;SDS011;74725;44.210;17.906;2023-12-29T09:02:03;108.00;;;50.53;;
84500;SDS011;74725;44.210;17.906;2023-12-29T09:04:29;105.10;;;50.92;;
84500;SDS011;74725;44.210;17.906;2023-12-29T09:06:54;120.60;;;56.13;;
84500;SDS011;74725;44.210;17.906;2023-12-29T09:09:20;119.43;;;56.28;;
84500;SDS011;74725;44.210;17.906;2023-12-29T09:11:46;109.40;;;53.47;;
84500;SDS011;74725;44.210;17.906;2023-12-29T09:14:12;114.13;;;53.78;;
84500;SDS011;74725;44.210;17.906;2023-12-29T09:16:38;107.93;;;50.70;;
84500;SDS011;74725;44.210;17.906;2023-12-29T09:19:05;104.88;;;50.88;;
84500;SDS011;74725;44.210;17.906;2023-12-29T09:21:31;113.82;;;52.15;;
84500;SDS011;74725;44.210;17.906;2023-12-29T09:23:56;110.30;;;54.78;;
84500;SDS011;74725;44.210;17.906;2023-12-29T09:26:22;111.60;;;53.40;;
84500;SDS011;74725;44.210;17.906;2023-12-29T09:28:47;124.65;;;58.28;;
84500;SDS011;74725;44.210;17.906;2023-12-29T09:31:13;123.63;;;56.05;;
84500;SDS011;74725;44.210;17.906;2023-12-29T09:33:39;117.63;;;53.72;;
84500;SDS011;74725;44.210;17.906;2023-12-29T09:36:04;146.27;;;66.68;;
84500;SDS011;74725;44.210;17.906;2023-12-29T09:38:30;113.43;;;53.35;;
84500;SDS011;74725;44.210;17.906;2023-12-29T09:41:00;123.55;;;57.88;;
84500;SDS011;74725;44.210;17.906;2023-12-29T09:43:34;130.07;;;57.95;;
84500;SDS011;74725;44.210;17.906;2023-12-29T09:46:01;132.82;;;57.38;;
84500;SDS011;74725;44.210;17.906;2023-12-29T09:48:28;134.85;;;57.17;;
84500;SDS011;74725;44.210;17.906;2023-12-29T09:50:56;120.03;;;55.35;;
84500;SDS011;74725;44.210;17.906;2023-12-29T09:53:22;111.82;;;52.00;;
84500;SDS011;74725;44.210;17.906;2023-12-29T09:55:49;123.25;;;53.58;;
84500;SDS011;74725;44.210;17.906;2023-12-29T09:58:16;128.48;;;58.85;;
84500;SDS011;74725;44.210;17.906;2023-12-29T10:00:46;119.60;;;55.90;;
84500;SDS011;74725;44.210;17.906;2023-12-29T10:03:14;117.15;;;55.35;;
84500;SDS011;74725;44.210;17.906;2023-12-29T10:05:40;112.47;;;55.80;;
84500;SDS011;74725;44.210;17.906;2023-12-29T10:08:06;137.27;;;62.00;;
84500;SDS011;74725;44.210;17.906;2023-12-29T10:10:35;109.57;;;52.67;;
84500;SDS011;74725;44.210;17.906;2023-12-29T10:13:03;112.38;;;53.67;;
84500;SDS011;74725;44.210;17.906;2023-12-29T10:18:37;100.68;;;49.17;;
84500;SDS011;74725;44.210;17.906;2023-12-29T10:24:17;108.82;;;48.47;;
84500;SDS011;74725;44.210;17.906;2023-12-29T10:26:46;97.63;;;47.20;;
84500;SDS011;74725;44.210;17.906;2023-12-29T10:29:12;93.38;;;45.92;;
84500;SDS011;74725;44.210;17.906;2023-12-29T10:31:38;90.32;;;44.20;;
84500;SDS011;74725;44.210;17.906;2023-12-29T10:34:22;98.47;;;46.60;;
84500;SDS011;74725;44.210;17.906;2023-12-29T10:37:01;85.18;;;42.70;;
84500;SDS011;74725;44.210;17.906;2023-12-29T10:39:55;101.78;;;46.47;;
84500;SDS011;74725;44.210;17.906;2023-12-29T10:42:24;95.65;;;45.78;;
84500;SDS011;74725;44.210;17.906;2023-12-29T10:44:53;81.22;;;42.17;;
84500;SDS011;74725;44.210;17.906;2023-12-29T10:50:44;79.93;;;39.50;;
84500;SDS011;74725;44.210;17.906;2023-12-29T10:55:38;71.43;;;33.75;;
84500;SDS011;74725;44.210;17.906;2023-12-29T10:58:04;56.08;;;30.50;;
84500;SDS011;74725;44.210;17.906;2023-12-29T11:00:30;56.05;;;29.20;;
84500;SDS011;74725;44.210;17.906;2023-12-29T11:02:57;51.22;;;27.20;;
84500;SDS011;74725;44.210;17.906;2023-12-29T11:05:27;55.13;;;28.83;;
84500;SDS011;74725;44.210;17.906;2023-12-29T11:07:53;56.13;;;28.98;;
84500;SDS011;74725;44.210;17.906;2023-12-29T11:10:20;67.00;;;33.92;;
84500;SDS011;74725;44.210;17.906;2023-12-29T11:12:47;62.00;;;33.53;;
84500;SDS011;74725;44.210;17.906;2023-12-29T11:15:14;60.45;;;33.80;;
84500;SDS011;74725;44.210;17.906;2023-12-29T11:17:43;69.35;;;34.35;;
84500;SDS011;74725;44.210;17.906;2023-12-29T11:20:16;58.53;;;29.88;;
84500;SDS011;74725;44.210;17.906;2023-12-29T11:22:42;47.83;;;27.75;;
84500;SDS011;74725;44.210;17.906;2023-12-29T11:25:09;54.58;;;28.58;;
84500;SDS011;74725;44.210;17.906;2023-12-29T11:27:35;44.15;;;24.92;;
84500;SDS011;74725;44.210;17.906;2023-12-29T11:30:02;56.85;;;30.88;;
84500;SDS011;74725;44.210;17.906;2023-12-29T11:35:39;57.42;;;33.20;;
84500;SDS011;74725;44.210;17.906;2023-12-29T11:40:45;70.22;;;35.65;;
84500;SDS011;74725;44.210;17.906;2023-12-29T11:43:22;68.65;;;34.53;;
84500;SDS011;74725;44.210;17.906;2023-12-29T11:45:49;63.50;;;34.88;;
84500;SDS011;74725;44.210;17.906;2023-12-29T11:48:52;69.82;;;36.13;;
84500;SDS011;74725;44.210;17.906;2023-12-29T11:51:29;58.88;;;32.72;;
84500;SDS011;74725;44.210;17.906;2023-12-29T11:53:56;61.72;;;32.40;;
84500;SDS011;74725;44.210;17.906;2023-12-29T11:56:22;65.28;;;35.10;;
84500;SDS011;74725;44.210;17.906;2023-12-29T11:58:48;83.68;;;42.22;;
84500;SDS011;74725;44.210;17.906;2023-12-29T12:01:14;69.57;;;37.03;;
84500;SDS011;74725;44.210;17.906;2023-12-29T12:03:58;71.13;;;36.38;;
84500;SDS011;74725;44.210;17.906;2023-12-29T12:06:36;60.45;;;34.03;;
84500;SDS011;74725;44.210;17.906;2023-12-29T12:09:15;64.28;;;33.35;;
84500;SDS011;74725;44.210;17.906;2023-12-29T12:11:43;64.70;;;34.67;;
84500;SDS011;74725;44.210;17.906;2023-12-29T12:14:09;62.58;;;33.33;;
84500;SDS011;74725;44.210;17.906;2023-12-29T12:16:47;68.60;;;35.00;;
84500;SDS011;74725;44.210;17.906;2023-12-29T12:19:14;62.20;;;33.38;;
84500;SDS011;74725;44.210;17.906;2023-12-29T12:21:42;66.47;;;34.90;;
84500;SDS011;74725;44.210;17.906;2023-12-29T12:24:13;68.30;;;35.40;;
84500;SDS011;74725;44.210;17.906;2023-12-29T12:26:38;72.32;;;37.25;;
84500;SDS011;74725;44.210;17.906;2023-12-29T13:01:29;77.63;;;42.28;;
84500;SDS011;74725;44.210;17.906;2023-12-29T13:03:59;80.20;;;41.05;;
84500;SDS011;74725;44.210;17.906;2023-12-29T13:06:25;73.70;;;39.88;;
84500;SDS011;74725;44.210;17.906;2023-12-29T13:19:39;86.07;;;44.10;;
84500;SDS011;74725;44.210;17.906;2023-12-29T13:22:06;64.28;;;34.50;;
84500;SDS011;74725;44.210;17.906;2023-12-29T13:24:33;70.40;;;39.03;;
84500;SDS011;74725;44.210;17.906;2023-12-29T13:27:04;70.85;;;38.78;;
84500;SDS011;74725;44.210;17.906;2023-12-29T14:54:19;126.38;;;55.67;;
84500;SDS011;74725;44.210;17.906;2023-12-29T14:56:45;120.97;;;56.40;;
84500;SDS011;74725;44.210;17.906;2023-12-29T15:31:34;120.40;;;59.13;;
84500;SDS011;74725;44.210;17.906;2023-12-29T15:33:59;124.68;;;56.72;;
84500;SDS011;74725;44.210;17.906;2023-12-29T15:36:25;138.68;;;68.00;;
84500;SDS011;74725;44.210;17.906;2023-12-29T15:49:38;113.57;;;59.88;;
84500;SDS011;74725;44.210;17.906;2023-12-29T15:52:03;141.18;;;68.47;;
84500;SDS011;74725;44.210;17.906;2023-12-29T15:54:29;132.15;;;64.25;;
84500;SDS011;74725;44.210;17.906;2023-12-29T15:56:57;147.80;;;66.70;;
84500;SDS011;74725;44.210;17.906;2023-12-29T16:29:05;163.18;;;73.30;;
84500;SDS011;74725;44.210;17.906;2023-12-29T16:31:31;163.32;;;80.85;;
84500;SDS011;74725;44.210;17.906;2023-12-29T16:33:57;206.50;;;88.18;;
84500;SDS011;74725;44.210;17.906;2023-12-29T16:36:23;208.60;;;90.20;;
84500;SDS011;74725;44.210;17.906;2023-12-29T16:55:00;207.73;;;95.55;;
84500;SDS011;74725;44.210;17.906;2023-12-29T16:57:25;206.43;;;93.82;;
84500;SDS011;74725;44.210;17.906;2023-12-29T17:05:15;213.73;;;98.95;;
84500;SDS011;74725;44.210;17.906;2023-12-29T17:07:40;217.60;;;98.00;;
84500;SDS011;74725;44.210;17.906;2023-12-29T17:15:30;236.05;;;104.25;;
84500;SDS011;74725;44.210;17.906;2023-12-29T17:17:55;284.55;;;121.32;;
84500;SDS011;74725;44.210;17.906;2023-12-29T17:31:09;331.17;;;143.70;;
84500;SDS011;74725;44.210;17.906;2023-12-29T17:33:34;331.10;;;137.73;;
84500;SDS011;74725;44.210;17.906;2023-12-29T17:36:00;280.95;;;127.75;;
84500;SDS011;74725;44.210;17.906;2023-12-29T18:02:43;391.00;;;163.60;;
84500;SDS011;74725;44.210;17.906;2023-12-29T18:05:09;361.40;;;160.82;;
84500;SDS011;74725;44.210;17.906;2023-12-29T18:07:35;336.30;;;145.82;;
84500;SDS011;74725;44.210;17.906;2023-12-29T18:56:05;283.77;;;122.25;;
84500;SDS011;74725;44.210;17.906;2023-12-29T19:19:03;245.13;;;108.65;;
84500;SDS011;74725;44.210;17.906;2023-12-29T19:21:28;236.30;;;106.53;;
84500;SDS011;74725;44.210;17.906;2023-12-29T19:23:55;251.60;;;110.50;;
84500;SDS011;74725;44.210;17.906;2023-12-29T19:26:21;245.13;;;106.18;;
84500;SDS011;74725;44.210;17.906;2023-12-29T19:39:36;239.93;;;106.78;;
84500;SDS011;74725;44.210;17.906;2023-12-29T19:42:02;234.82;;;106.63;;
84500;SDS011;74725;44.210;17.906;2023-12-29T19:44:28;231.32;;;104.30;;
84500;SDS011;74725;44.210;17.906;2023-12-29T19:46:53;241.77;;;106.75;;
84500;SDS011;74725;44.210;17.906;2023-12-29T20:24:42;212.68;;;102.32;;
84500;SDS011;74725;44.210;17.906;2023-12-29T20:27:07;218.43;;;99.88;;
84500;SDS011;74725;44.210;17.906;2023-12-29T20:37:26;200.73;;;97.30;;
84500;SDS011;74725;44.210;17.906;2023-12-29T20:53:21;193.07;;;90.78;;
84500;SDS011;74725;44.210;17.906;2023-12-29T20:55:46;188.60;;;91.50;;
84500;SDS011;74725;44.210;17.906;2023-12-29T20:58:13;195.60;;;94.18;;
84500;SDS011;74725;44.210;17.906;2023-12-29T21:30:21;180.40;;;89.10;;
84500;SDS011;74725;44.210;17.906;2023-12-29T21:32:46;172.25;;;84.43;;
84500;SDS011;74725;44.210;17.906;2023-12-29T21:35:12;214.55;;;101.28;;
84500;SDS011;74725;44.210;17.906;2023-12-29T21:37:40;228.25;;;106.53;;
84500;SDS011;74725;44.210;17.906;2023-12-29T21:50:53;231.18;;;109.68;;
84500;SDS011;74725;44.210;17.906;2023-12-29T21:53:18;189.15;;;91.15;;
84500;SDS011;74725;44.210;17.906;2023-12-29T21:55:44;190.30;;;92.65;;
84500;SDS011;74725;44.210;17.906;2023-12-29T21:58:10;209.60;;;100.70;;
84500;SDS011;74725;44.210;17.906;2023-12-29T22:05:58;195.90;;;92.25;;
84500;SDS011;74725;44.210;17.906;2023-12-29T22:08:24;184.85;;;88.13;;
84500;SDS011;74725;44.210;17.906;2023-12-29T22:45:56;183.60;;;84.80;;
84500;SDS011;74725;44.210;17.906;2023-12-29T22:48:21;190.10;;;88.93;;
84500;SDS011;74725;44.210;17.906;2023-12-29T22:53:29;170.43;;;83.53;;
84500;SDS011;74725;44.210;17.906;2023-12-29T22:55:54;172.38;;;83.53;;
84500;SDS011;74725;44.210;17.906;2023-12-29T22:58:21;188.88;;;87.00;;
84500;SDS011;74725;44.210;17.906;2023-12-29T23:19:41;206.23;;;98.72;;
84500;SDS011;74725;44.210;17.906;2023-12-29T23:24:49;195.38;;;88.80;;
84500;SDS011;74725;44.210;17.906;2023-12-29T23:27:14;191.52;;;90.70;;
84500;SDS011;74725;44.210;17.906;2023-12-29T23:29:40;192.95;;;89.75;;
84500;SDS011;74725;44.210;17.906;2023-12-29T23:34:48;192.68;;;93.22;;
84500;SDS011;74725;44.210;17.906;2023-12-29T23:37:14;191.82;;;87.70;;
84500;SDS011;74725;44.210;17.906;2023-12-29T23:39:40;185.93;;;88.18;;
